Lewistown Junction, Pennsylvania
Current Conditions -  °F | °C
As of 1:15 AM on Monday 22 Dec 2014 (Local Time) from KUNV Reporting Station
Scattered Clouds Scattered Clouds  
Wind Chill: 22°   Ceiling: Unl
Heat Index: 22°   Visibility: 10mi
Dew Point: 20°   Wind: 0mph
Humidity: 91%   Direction: NA
Pressure: 30.25"   Gusts: NA
Location:  40.6073°N, 77.5812°W
Report Text: KUNV 220615Z AUTO 00000KT 10SM SCT065 SCT085 M05/M07 A3025 RMK AO2 T10541066
Loading
Personal Weather Stations






























Interactive Weather Map New forecast layout! Learn more

10-Day Weather Forecast

Advertisements
Track Severe Weather on mobile